createdAt,value
2024-05-09T00:00:03.666Z,0.00
2024-05-09T00:01:02.844Z,0.00
2024-05-09T00:02:02.864Z,0.00
2024-05-09T00:03:02.845Z,0.00
2024-05-09T00:04:02.862Z,0.00
2024-05-09T00:05:03.103Z,0.00
2024-05-09T00:06:02.954Z,0.00
2024-05-09T00:07:02.753Z,0.00
2024-05-09T00:08:02.804Z,0.00
2024-05-09T00:09:02.769Z,0.00
2024-05-09T00:10:04.134Z,0.00
2024-05-09T00:11:02.790Z,0.00
2024-05-09T00:12:02.851Z,0.00
2024-05-09T00:13:02.703Z,0.00
2024-05-09T00:14:02.724Z,0.00
2024-05-09T00:15:02.673Z,0.00
2024-05-09T00:16:02.672Z,0.00
2024-05-09T00:17:02.723Z,0.00
2024-05-09T00:18:03.397Z,0.00
2024-05-09T00:19:02.822Z,0.00
2024-05-09T00:20:03.262Z,0.00
2024-05-09T00:21:02.668Z,0.00
2024-05-09T00:22:02.624Z,0.00
2024-05-09T00:23:02.642Z,0.00
2024-05-09T00:24:02.595Z,0.00
2024-05-09T00:25:02.578Z,0.00
2024-05-09T00:26:02.626Z,0.00
2024-05-09T00:27:02.554Z,0.00
2024-05-09T00:28:02.565Z,0.00
2024-05-09T00:29:02.654Z,0.00
2024-05-09T00:30:04.136Z,0.00
2024-05-09T00:31:02.533Z,0.00
2024-05-09T00:32:02.635Z,0.00
2024-05-09T00:33:02.663Z,0.00
2024-05-09T00:34:02.689Z,0.00
2024-05-09T00:35:02.552Z,0.00
2024-05-09T00:36:02.473Z,0.00
2024-05-09T00:37:02.472Z,0.00
2024-05-09T00:38:02.603Z,0.00
2024-05-09T00:39:02.431Z,0.00
2024-05-09T00:40:02.434Z,0.00
2024-05-09T00:41:02.448Z,0.00
2024-05-09T00:42:02.425Z,0.00
2024-05-09T00:43:02.412Z,0.00
2024-05-09T00:44:02.476Z,0.00
2024-05-09T00:45:02.378Z,0.00
2024-05-09T00:46:02.376Z,0.00
2024-05-09T00:47:02.390Z,0.00
2024-05-09T00:48:02.599Z,0.00
2024-05-09T00:49:02.444Z,0.00
2024-05-09T00:50:03.172Z,0.00
2024-05-09T00:51:02.387Z,0.00
2024-05-09T00:52:02.301Z,0.00
2024-05-09T00:53:02.328Z,0.00
2024-05-09T00:54:02.275Z,0.00
2024-05-09T00:55:02.293Z,0.00
2024-05-09T00:56:02.355Z,0.00
2024-05-09T00:57:02.257Z,0.00
2024-05-09T00:58:02.241Z,0.00
2024-05-09T00:59:02.261Z,0.00
2024-05-09T01:00:02.286Z,0.00
2024-05-09T01:01:02.266Z,0.00
2024-05-09T01:02:02.336Z,0.00
2024-05-09T01:03:02.519Z,0.00
2024-05-09T01:04:02.246Z,0.00
2024-05-09T01:05:02.309Z,0.00
2024-05-09T01:06:02.190Z,0.00
2024-05-09T01:07:02.144Z,0.00
2024-05-09T01:08:02.258Z,0.00
2024-05-09T01:09:02.119Z,0.00
2024-05-09T01:10:02.409Z,0.00
2024-05-09T01:11:02.198Z,0.00
2024-05-09T01:12:02.303Z,0.00
2024-05-09T01:13:02.093Z,0.00
2024-05-09T01:14:02.187Z,0.00
2024-05-09T01:15:02.105Z,0.00
2024-05-09T01:16:02.134Z,0.00
2024-05-09T01:17:02.062Z,0.00
2024-05-09T01:18:02.457Z,0.00
2024-05-09T01:19:02.124Z,0.00
2024-05-09T01:20:02.139Z,0.00
2024-05-09T01:21:02.112Z,0.00
2024-05-09T01:22:01.998Z,0.00
2024-05-09T01:23:02.067Z,0.00
2024-05-09T01:24:01.981Z,0.00
2024-05-09T01:25:01.955Z,0.00
2024-05-09T01:26:02.031Z,0.00
2024-05-09T01:27:01.929Z,0.00
2024-05-09T01:28:01.940Z,0.00
2024-05-09T01:29:01.981Z,0.00
2024-05-09T01:30:01.926Z,0.00
2024-05-09T01:31:01.899Z,0.00
2024-05-09T01:32:01.983Z,0.00
2024-05-09T01:33:02.198Z,0.00
2024-05-09T01:34:01.913Z,0.00
2024-05-09T01:35:01.858Z,0.00
2024-05-09T01:36:01.863Z,0.00
2024-05-09T01:37:01.833Z,0.00
2024-05-09T01:38:01.906Z,0.00
2024-05-09T01:39:01.809Z,0.00
2024-05-09T01:40:01.809Z,0.00
2024-05-09T01:41:01.844Z,0.00
2024-05-09T01:42:01.834Z,0.00
2024-05-09T01:43:01.805Z,0.00
2024-05-09T01:44:01.850Z,0.00
2024-05-09T01:45:01.756Z,0.00
2024-05-09T01:46:01.741Z,0.00
2024-05-09T01:47:01.782Z,0.00
2024-05-09T01:48:02.708Z,0.00
2024-05-09T01:49:01.818Z,0.00
2024-05-09T01:50:01.812Z,0.00
2024-05-09T01:51:01.753Z,0.00
2024-05-09T01:52:01.717Z,0.00
2024-05-09T01:53:01.750Z,0.00
2024-05-09T01:54:01.677Z,0.00
2024-05-09T01:55:04.618Z,0.00
2024-05-09T01:56:01.757Z,0.00
2024-05-09T01:57:01.649Z,0.00
2024-05-09T01:58:01.624Z,0.00
2024-05-09T01:59:01.621Z,0.00
2024-05-09T02:00:01.598Z,0.00
2024-05-09T02:01:01.631Z,0.00
2024-05-09T02:02:01.807Z,0.00
2024-05-09T02:03:02.029Z,0.00
2024-05-09T02:04:01.879Z,0.00
2024-05-09T02:05:01.649Z,0.00
2024-05-09T02:06:01.782Z,0.00
2024-05-09T02:07:01.517Z,0.00
2024-05-09T02:08:01.608Z,0.00
2024-05-09T02:09:01.500Z,0.00
2024-05-09T02:10:01.512Z,0.00
2024-05-09T02:11:01.611Z,0.00
2024-05-09T02:12:01.594Z,0.00
2024-05-09T02:13:01.474Z,0.00
2024-05-09T02:14:01.475Z,0.00
2024-05-09T02:15:01.463Z,0.00
2024-05-09T02:16:01.433Z,0.00
2024-05-09T02:17:01.534Z,0.00
2024-05-09T02:18:01.583Z,0.00
2024-05-09T02:19:01.660Z,0.00
2024-05-09T02:20:01.490Z,0.00
2024-05-09T02:21:01.561Z,0.00
2024-05-09T02:22:01.371Z,0.00
2024-05-09T02:23:01.400Z,0.00
2024-05-09T02:24:01.392Z,0.00
2024-05-09T02:25:01.361Z,0.00
2024-05-09T02:26:01.399Z,0.00
2024-05-09T02:27:01.318Z,0.00
2024-05-09T02:28:01.365Z,0.00
2024-05-09T02:29:01.331Z,0.00
2024-05-09T02:30:01.313Z,0.00
2024-05-09T02:31:01.278Z,0.00
2024-05-09T02:32:01.414Z,0.00
2024-05-09T02:33:01.510Z,0.00
2024-05-09T02:34:01.713Z,0.00
2024-05-09T02:35:01.288Z,0.00
2024-05-09T02:36:01.229Z,0.00
2024-05-09T02:37:01.218Z,0.00
2024-05-09T02:38:02.190Z,0.00
2024-05-09T02:39:01.237Z,0.00
2024-05-09T02:40:01.201Z,0.00
2024-05-09T02:41:01.216Z,0.00
2024-05-09T02:42:01.172Z,0.00
2024-05-09T02:43:01.174Z,0.00
2024-05-09T02:44:01.224Z,0.00
2024-05-09T02:45:01.164Z,0.00
2024-05-09T02:46:01.136Z,0.00
2024-05-09T02:47:01.193Z,0.00
2024-05-09T02:48:01.935Z,0.00
2024-05-09T02:49:01.258Z,0.00
2024-05-09T02:50:01.137Z,0.00
2024-05-09T02:51:01.109Z,0.00
2024-05-09T02:52:01.128Z,0.00
2024-05-09T02:53:01.213Z,0.00
2024-05-09T02:54:01.040Z,0.00
2024-05-09T02:55:01.041Z,0.00
2024-05-09T02:56:01.110Z,0.00
2024-05-09T02:57:01.036Z,0.00
2024-05-09T02:58:00.976Z,1.00
2024-05-09T02:59:01.018Z,0.00
2024-05-09T03:00:00.996Z,0.00
2024-05-09T03:01:01.001Z,0.00
2024-05-09T03:02:01.085Z,0.00
2024-05-09T03:03:01.186Z,1.00
2024-05-09T03:04:01.054Z,1.00
2024-05-09T03:05:00.924Z,1.00
2024-05-09T03:06:00.949Z,0.00
2024-05-09T03:07:00.924Z,0.00
2024-05-09T03:08:01.024Z,2.00
2024-05-09T03:09:00.839Z,1.00
2024-05-09T03:10:00.837Z,1.00
2024-05-09T03:11:00.917Z,0.00
2024-05-09T03:12:00.927Z,0.00
2024-05-09T03:13:00.810Z,1.00
2024-05-09T03:14:00.850Z,1.00
2024-05-09T03:15:00.776Z,3.00
2024-05-09T03:16:00.788Z,2.00
2024-05-09T03:17:00.796Z,1.00
2024-05-09T03:18:01.483Z,2.00
2024-05-09T03:19:00.820Z,3.00
2024-05-09T03:20:00.829Z,3.00
2024-05-09T03:21:00.961Z,4.00
2024-05-09T03:22:00.698Z,4.00
2024-05-09T03:23:00.736Z,4.00
2024-05-09T03:24:00.681Z,5.00
2024-05-09T03:25:00.706Z,6.00
2024-05-09T03:26:00.771Z,6.00
2024-05-09T03:27:00.652Z,7.00
2024-05-09T03:28:00.676Z,8.00
2024-05-09T03:29:00.681Z,9.00
2024-05-09T03:30:00.988Z,10.00
2024-05-09T03:31:00.606Z,11.00
2024-05-09T03:32:00.732Z,12.00
2024-05-09T03:33:00.841Z,14.00
2024-05-09T03:34:00.764Z,15.00
2024-05-09T03:35:00.641Z,16.00
2024-05-09T03:36:00.565Z,18.00
2024-05-09T03:37:00.617Z,25.00
2024-05-09T03:38:00.603Z,28.00
2024-05-09T03:39:00.680Z,28.00
2024-05-09T03:40:00.509Z,29.00
2024-05-09T03:41:00.612Z,35.00
2024-05-09T03:42:00.495Z,39.00
2024-05-09T03:43:00.524Z,44.00
2024-05-09T03:44:00.576Z,46.00
2024-05-09T03:45:00.508Z,53.00
2024-05-09T03:46:00.481Z,62.00
2024-05-09T03:47:00.476Z,68.00
2024-05-09T03:48:00.658Z,74.00
2024-05-09T03:49:00.513Z,77.00
2024-05-09T03:50:00.447Z,81.00
2024-05-09T03:51:00.451Z,87.00
2024-05-09T03:52:00.386Z,87.00
2024-05-09T03:53:00.851Z,93.00
2024-05-09T03:54:00.381Z,103.00
2024-05-09T03:55:00.369Z,109.00
2024-05-09T03:56:00.443Z,118.00
2024-05-09T03:57:00.383Z,124.00
2024-05-09T03:58:00.373Z,134.00
2024-05-09T03:59:00.339Z,138.00
2024-05-09T04:00:00.309Z,146.00
2024-05-09T04:01:00.331Z,153.00
2024-05-09T04:02:00.449Z,159.00
2024-05-09T04:03:00.470Z,168.00
2024-05-09T04:04:00.301Z,177.00
2024-05-09T04:05:00.357Z,184.00
2024-05-09T04:06:00.253Z,195.00
2024-05-09T04:07:00.256Z,204.00
2024-05-09T04:08:00.328Z,210.00
2024-05-09T04:09:00.241Z,216.00
2024-05-09T04:10:00.276Z,222.00
2024-05-09T04:11:00.297Z,227.00
2024-05-09T04:12:00.353Z,228.00
2024-05-09T04:13:00.183Z,232.00
2024-05-09T04:14:00.221Z,240.00
2024-05-09T04:15:00.181Z,246.00
2024-05-09T04:16:00.158Z,257.00
2024-05-09T04:17:00.175Z,265.00
2024-05-09T04:18:01.058Z,269.00
2024-05-09T04:19:00.184Z,273.00
2024-05-09T04:20:00.278Z,278.00
2024-05-09T04:21:00.163Z,283.00
2024-05-09T04:22:00.098Z,286.00
2024-05-09T04:23:00.108Z,293.00
2024-05-09T04:24:00.066Z,294.00
2024-05-09T04:25:00.140Z,300.00
2024-05-09T04:26:00.080Z,306.00
2024-05-09T04:27:00.046Z,313.00
2024-05-09T04:28:00.034Z,315.00
2024-05-09T04:29:00.035Z,322.00
2024-05-09T04:30:00.037Z,329.00
2024-05-09T04:30:59.993Z,330.00
2024-05-09T04:32:00.122Z,340.00
2024-05-09T04:33:00.083Z,348.00
2024-05-09T04:34:00.072Z,367.00
2024-05-09T04:35:00.400Z,376.00
2024-05-09T04:35:59.939Z,390.00
2024-05-09T04:36:59.931Z,401.00
2024-05-09T04:37:59.971Z,420.00
2024-05-09T04:39:00.794Z,415.00
2024-05-09T04:39:59.944Z,438.00
2024-05-09T04:40:59.981Z,445.00
2024-05-09T04:41:59.876Z,460.00
2024-05-09T04:42:59.894Z,475.00
2024-05-09T04:43:59.903Z,498.00
2024-05-09T04:44:59.853Z,511.00
2024-05-09T04:45:59.834Z,522.00
2024-05-09T04:46:59.864Z,540.00
2024-05-09T04:48:00.232Z,540.00
2024-05-09T04:48:59.944Z,548.00
2024-05-09T04:49:59.825Z,550.00
2024-05-09T04:50:59.864Z,584.00
2024-05-09T04:51:59.780Z,633.00
2024-05-09T04:52:59.815Z,712.00
2024-05-09T04:53:59.781Z,764.00
2024-05-09T04:54:59.751Z,762.00
2024-05-09T04:55:59.826Z,909.00
2024-05-09T04:56:59.752Z,3697.00
2024-05-09T04:57:59.750Z,4594.00
2024-05-09T04:58:59.732Z,9056.00
2024-05-09T04:59:59.699Z,16383.00
2024-05-09T05:00:59.733Z,14579.00
2024-05-09T05:01:59.781Z,5746.00
2024-05-09T05:03:00.004Z,11597.00
2024-05-09T05:03:59.762Z,20478.00
2024-05-09T05:04:59.785Z,18170.00
2024-05-09T05:05:59.843Z,15371.00
2024-05-09T05:07:02.696Z,14484.00
2024-05-09T05:07:59.748Z,73552.00
2024-05-09T05:08:59.605Z,22989.00
2024-05-09T05:09:59.590Z,17562.00
2024-05-09T05:10:59.720Z,27156.00
2024-05-09T05:11:59.757Z,19724.00
2024-05-09T05:12:59.562Z,2796.00
2024-05-09T05:13:59.596Z,13462.00
2024-05-09T05:14:59.554Z,3257.00
2024-05-09T05:15:59.533Z,5611.00
2024-05-09T05:16:59.569Z,31166.00
2024-05-09T05:17:59.698Z,31924.00
2024-05-09T05:18:59.561Z,10623.00
2024-05-09T05:19:59.627Z,2128.00
2024-05-09T05:20:59.566Z,1033.00
2024-05-09T05:21:59.483Z,1436.00
2024-05-09T05:22:59.543Z,4056.00
2024-05-09T05:23:59.451Z,2620.00
2024-05-09T05:24:59.496Z,7258.00
2024-05-09T05:25:59.521Z,4516.00
2024-05-09T05:26:59.410Z,1365.00
2024-05-09T05:27:59.392Z,1372.00
2024-05-09T05:28:59.421Z,914.00
2024-05-09T05:29:59.387Z,1467.00
2024-05-09T05:30:59.414Z,6982.00
2024-05-09T05:31:59.431Z,9846.00
2024-05-09T05:32:59.472Z,3763.00
2024-05-09T05:33:59.374Z,1190.00
2024-05-09T05:34:59.436Z,3813.00
2024-05-09T05:35:59.334Z,1631.00
2024-05-09T05:36:59.310Z,1369.00
2024-05-09T05:37:59.322Z,1562.00
2024-05-09T05:38:59.318Z,1517.00
2024-05-09T05:39:59.324Z,1507.00
2024-05-09T05:40:59.293Z,1507.00
2024-05-09T05:41:59.246Z,1513.00
2024-05-09T05:42:59.246Z,1553.00
2024-05-09T05:43:59.341Z,1545.00
2024-05-09T05:44:59.246Z,858.00
2024-05-09T05:45:59.218Z,2408.00
2024-05-09T05:46:59.251Z,3171.00
2024-05-09T05:47:59.345Z,1684.00
2024-05-09T05:48:59.367Z,1546.00
2024-05-09T05:49:59.284Z,1545.00
2024-05-09T05:51:01.896Z,1561.00
2024-05-09T05:51:59.150Z,1576.00
2024-05-09T05:52:59.151Z,1583.00
2024-05-09T05:53:59.139Z,1604.00
2024-05-09T05:54:59.119Z,1612.00
2024-05-09T05:55:59.156Z,1639.00
2024-05-09T05:56:59.101Z,1667.00
2024-05-09T05:57:59.091Z,1698.00
2024-05-09T05:58:59.116Z,1774.00
2024-05-09T05:59:59.058Z,1844.00
2024-05-09T06:00:59.109Z,1881.00
2024-05-09T06:01:59.049Z,1902.00
2024-05-09T06:02:59.159Z,1890.00
2024-05-09T06:03:59.119Z,1858.00
2024-05-09T06:04:59.091Z,1756.00
2024-05-09T06:05:59.159Z,1631.00
2024-05-09T06:06:58.997Z,1892.00
2024-05-09T06:07:59.559Z,1867.00
2024-05-09T06:08:59.052Z,1850.00
2024-05-09T06:09:58.955Z,1857.00
2024-05-09T06:10:59.048Z,1833.00
2024-05-09T06:11:58.988Z,1831.00
2024-05-09T06:12:59.656Z,1868.00
2024-05-09T06:13:58.941Z,1940.00
2024-05-09T06:14:58.914Z,1945.00
2024-05-09T06:15:58.912Z,1947.00
2024-05-09T06:16:58.948Z,2008.00
2024-05-09T06:17:59.331Z,2031.00
2024-05-09T06:19:05.924Z,1978.00
2024-05-09T06:19:58.893Z,1965.00
2024-05-09T06:20:58.859Z,1977.00
2024-05-09T06:21:58.862Z,1990.00
2024-05-09T06:22:58.885Z,1989.00
2024-05-09T06:23:58.818Z,1991.00
2024-05-09T06:24:58.801Z,2012.00
2024-05-09T06:25:58.839Z,2024.00
2024-05-09T06:26:58.816Z,2033.00
2024-05-09T06:27:58.790Z,2042.00
2024-05-09T06:28:58.793Z,2052.00
2024-05-09T06:29:58.763Z,2056.00
2024-05-09T06:30:58.763Z,2066.00
2024-05-09T06:32:00.213Z,2079.00
2024-05-09T06:32:58.974Z,2093.00
2024-05-09T06:33:58.777Z,2098.00
2024-05-09T06:34:58.743Z,2093.00
2024-05-09T06:35:58.706Z,2069.00
2024-05-09T06:36:58.680Z,1903.00
2024-05-09T06:37:58.713Z,2319.00
2024-05-09T06:38:58.686Z,2538.00
2024-05-09T06:39:58.646Z,2133.00
2024-05-09T06:40:58.666Z,2140.00
2024-05-09T06:41:58.615Z,2091.00
2024-05-09T06:42:58.619Z,2088.00
2024-05-09T06:43:58.668Z,1249.00
2024-05-09T06:44:58.621Z,2688.00
2024-05-09T06:45:58.619Z,4345.00
2024-05-09T06:46:59.941Z,2361.00
2024-05-09T06:47:58.692Z,2173.00
2024-05-09T06:48:58.740Z,2163.00
2024-05-09T06:49:58.589Z,2168.00
2024-05-09T06:50:58.584Z,2192.00
2024-05-09T06:51:58.527Z,2167.00
2024-05-09T06:52:58.544Z,2154.00
2024-05-09T06:53:58.497Z,2166.00
2024-05-09T06:54:58.525Z,2156.00
2024-05-09T06:55:58.516Z,2132.00
2024-05-09T06:56:58.494Z,2123.00
2024-05-09T06:57:58.468Z,2112.00
2024-05-09T06:58:58.488Z,2105.00
2024-05-09T06:59:58.459Z,2111.00
2024-05-09T07:00:58.444Z,2126.00
2024-05-09T07:01:58.434Z,2148.00
2024-05-09T07:03:00.126Z,2249.00
2024-05-09T07:03:58.480Z,1977.00
2024-05-09T07:04:58.608Z,1472.00
2024-05-09T07:05:58.433Z,1747.00
2024-05-09T07:06:58.374Z,2920.00
2024-05-09T07:07:58.380Z,18255.00
2024-05-09T07:08:58.358Z,75606.00
2024-05-09T07:09:58.322Z,77344.00
2024-05-09T07:10:58.397Z,73773.00
2024-05-09T07:11:58.412Z,64913.00
2024-05-09T07:12:58.334Z,16776.00
2024-05-09T07:13:58.344Z,6028.00
2024-05-09T07:14:58.283Z,4011.00
2024-05-09T07:15:58.270Z,3694.00
2024-05-09T07:16:58.409Z,3748.00
2024-05-09T07:17:58.361Z,3388.00
2024-05-09T07:18:58.364Z,2123.00
2024-05-09T07:19:58.242Z,2341.00
2024-05-09T07:20:58.270Z,2876.00
2024-05-09T07:21:58.214Z,2321.00
2024-05-09T07:22:58.268Z,2231.00
2024-05-09T07:23:58.187Z,2179.00
2024-05-09T07:24:58.200Z,1905.00
2024-05-09T07:25:58.232Z,2158.00
2024-05-09T07:26:58.181Z,4117.00
2024-05-09T07:27:58.178Z,3336.00
2024-05-09T07:28:58.193Z,6558.00
2024-05-09T07:29:58.125Z,83708.00
2024-05-09T07:30:58.108Z,79193.00
2024-05-09T07:31:58.127Z,74227.00
2024-05-09T07:32:58.388Z,67856.00
2024-05-09T07:33:58.186Z,19533.00
2024-05-09T07:34:58.111Z,3402.00
2024-05-09T07:35:58.080Z,15564.00
2024-05-09T07:36:58.068Z,20237.00
2024-05-09T07:37:58.156Z,5935.00
2024-05-09T07:38:58.025Z,2305.00
2024-05-09T07:39:58.026Z,4177.00
2024-05-09T07:40:58.516Z,2571.00
2024-05-09T07:41:58.018Z,2854.00
2024-05-09T07:42:57.975Z,6154.00
2024-05-09T07:43:58.085Z,9100.00
2024-05-09T07:45:14.570Z,3375.00
2024-05-09T07:46:23.004Z,3232.00
2024-05-09T07:48:28.874Z,2581.00
2024-05-09T07:52:22.590Z,6785.00
2024-05-09T07:53:42.088Z,4606.00
2024-05-09T07:53:53.424Z,8763.00
2024-05-09T07:54:45.058Z,11451.00
2024-05-09T07:55:45.137Z,12948.00
2024-05-09T07:56:45.034Z,76499.00
2024-05-09T07:57:44.968Z,77131.00
2024-05-09T07:58:44.954Z,76924.00
2024-05-09T07:59:44.920Z,77118.00
2024-05-09T08:00:45.089Z,73799.00
2024-05-09T08:01:45.010Z,68471.00
2024-05-09T08:02:44.909Z,23914.00
2024-05-09T08:03:45.057Z,18493.00
2024-05-09T08:04:44.958Z,22113.00
2024-05-09T08:05:44.868Z,26526.00
2024-05-09T08:06:44.860Z,25088.00
2024-05-09T08:07:44.797Z,15151.00
2024-05-09T08:08:44.811Z,5384.00
2024-05-09T08:09:44.837Z,26238.00
2024-05-09T08:10:44.858Z,70879.00
2024-05-09T08:11:44.803Z,17807.00
2024-05-09T08:12:44.766Z,78135.00
2024-05-09T08:13:44.803Z,76973.00
2024-05-09T08:14:44.760Z,78300.00
2024-05-09T08:15:44.852Z,72355.00
2024-05-09T08:16:44.708Z,38210.00
2024-05-09T08:17:44.847Z,29995.00
2024-05-09T08:18:44.814Z,21162.00
2024-05-09T08:19:44.747Z,27700.00
2024-05-09T08:20:44.661Z,24865.00
2024-05-09T08:21:44.706Z,4765.00
2024-05-09T08:22:44.632Z,20921.00
2024-05-09T08:23:44.664Z,20561.00
2024-05-09T08:24:44.654Z,6735.00
2024-05-09T08:25:44.598Z,4426.00
2024-05-09T08:26:44.594Z,2432.00
2024-05-09T08:27:44.637Z,4674.00
2024-05-09T08:28:44.602Z,3154.00
2024-05-09T08:29:44.676Z,5697.00
2024-05-09T08:30:44.833Z,27097.00
2024-05-09T08:31:44.716Z,26042.00
2024-05-09T08:32:44.725Z,5333.00
2024-05-09T08:33:44.760Z,11235.00
2024-05-09T08:34:44.679Z,83511.00
2024-05-09T08:35:44.510Z,71817.00
2024-05-09T08:36:44.610Z,73730.00
2024-05-09T08:37:44.567Z,75761.00
2024-05-09T08:38:44.482Z,75763.00
2024-05-09T08:39:44.528Z,76469.00
2024-05-09T08:40:44.638Z,75384.00
2024-05-09T08:41:44.460Z,73292.00
2024-05-09T08:42:44.496Z,73347.00
2024-05-09T08:43:44.462Z,75768.00
2024-05-09T08:44:44.416Z,76058.00
2024-05-09T08:45:45.443Z,73366.00
2024-05-09T08:46:44.428Z,75209.00
2024-05-09T08:47:44.444Z,76796.00
2024-05-09T08:48:44.584Z,73618.00
2024-05-09T08:49:44.391Z,75513.00
2024-05-09T08:50:45.510Z,75528.00
2024-05-09T08:51:44.409Z,75008.00
2024-05-09T08:52:44.318Z,73562.00
2024-05-09T08:53:44.353Z,69603.00
2024-05-09T08:54:44.390Z,31193.00
2024-05-09T08:55:44.728Z,5317.00
2024-05-09T08:56:44.292Z,17747.00
2024-05-09T08:57:44.283Z,9304.00
2024-05-09T08:58:44.271Z,25308.00
2024-05-09T08:59:44.248Z,18462.00
2024-05-09T09:00:45.008Z,12986.00
2024-05-09T09:01:44.429Z,3654.00
2024-05-09T09:02:44.707Z,3027.00
2024-05-09T09:03:44.388Z,2613.00
2024-05-09T09:04:44.341Z,2452.00
2024-05-09T09:05:44.264Z,2161.00
2024-05-09T09:06:44.443Z,2434.00
2024-05-09T09:07:44.179Z,2245.00
2024-05-09T09:08:44.154Z,2211.00
2024-05-09T09:09:44.351Z,3650.00
2024-05-09T09:10:44.278Z,2281.00
2024-05-09T09:11:44.175Z,2474.00
2024-05-09T09:12:44.281Z,3134.00
2024-05-09T09:13:44.118Z,3534.00
2024-05-09T09:14:44.127Z,8300.00
2024-05-09T09:15:44.166Z,8280.00
2024-05-09T09:16:44.086Z,15310.00
2024-05-09T09:17:44.178Z,24644.00
2024-05-09T09:18:44.326Z,9904.00
2024-05-09T09:19:44.113Z,9521.00
2024-05-09T09:20:44.156Z,26343.00
2024-05-09T09:21:44.110Z,15821.00
2024-05-09T09:22:44.012Z,16764.00
2024-05-09T09:23:44.033Z,23653.00
2024-05-09T09:24:44.084Z,26515.00
2024-05-09T09:25:43.998Z,4740.00
2024-05-09T09:26:43.990Z,28755.00
2024-05-09T09:27:43.997Z,29216.00
2024-05-09T09:28:43.993Z,6601.00
2024-05-09T09:29:43.944Z,4199.00
2024-05-09T09:30:44.029Z,7369.00
2024-05-09T09:31:43.969Z,28941.00
2024-05-09T09:32:44.009Z,13689.00
2024-05-09T09:33:44.190Z,25296.00
2024-05-09T09:34:43.993Z,30731.00
2024-05-09T09:35:43.914Z,12731.00
2024-05-09T09:36:43.935Z,6114.00
2024-05-09T09:37:43.887Z,5497.00
2024-05-09T09:38:43.948Z,10561.00
2024-05-09T09:39:43.860Z,2101.00
2024-05-09T09:40:48.284Z,8857.00
2024-05-09T09:41:43.836Z,1711.00
2024-05-09T09:42:43.875Z,8851.00
2024-05-09T09:43:43.802Z,3222.00
2024-05-09T09:44:47.756Z,1603.00
2024-05-09T09:45:43.984Z,4414.00
2024-05-09T09:46:43.783Z,4365.00
2024-05-09T09:47:43.856Z,4285.00
2024-05-09T09:48:43.862Z,4092.00
2024-05-09T09:49:43.869Z,3659.00
2024-05-09T09:50:43.724Z,3929.00
2024-05-09T09:51:43.881Z,3799.00
2024-05-09T09:52:43.740Z,3856.00
2024-05-09T09:53:43.722Z,3254.00
2024-05-09T09:54:43.725Z,3209.00
2024-05-09T09:55:43.695Z,2585.00
2024-05-09T09:56:43.687Z,2514.00
2024-05-09T09:57:43.800Z,2563.00
2024-05-09T09:58:43.646Z,2377.00
2024-05-09T09:59:43.636Z,2365.00
2024-05-09T10:00:43.845Z,2423.00
2024-05-09T10:01:43.800Z,2443.00
2024-05-09T10:02:43.659Z,2474.00
2024-05-09T10:03:43.720Z,2471.00
2024-05-09T10:04:43.718Z,2547.00
2024-05-09T10:05:46.316Z,2532.00
2024-05-09T10:06:43.602Z,2502.00
2024-05-09T10:07:43.571Z,2840.00
2024-05-09T10:08:43.547Z,2623.00
2024-05-09T10:09:43.596Z,2964.00
2024-05-09T10:10:43.899Z,3343.00
2024-05-09T10:11:49.106Z,3552.00
2024-05-09T10:12:43.528Z,3748.00
2024-05-09T10:13:43.499Z,3434.00
2024-05-09T10:14:43.475Z,3668.00
2024-05-09T10:15:44.206Z,3354.00
2024-05-09T10:16:43.464Z,2976.00
2024-05-09T10:17:43.536Z,2589.00
2024-05-09T10:18:43.776Z,2757.00
2024-05-09T10:19:43.481Z,3015.00
2024-05-09T10:20:43.476Z,2757.00
2024-05-09T10:21:43.500Z,2659.00
2024-05-09T10:22:43.403Z,2474.00
2024-05-09T10:23:44.176Z,2452.00
2024-05-09T10:24:43.427Z,2406.00
2024-05-09T10:25:43.387Z,2387.00
2024-05-09T10:26:43.407Z,2390.00
2024-05-09T10:27:43.362Z,2364.00
2024-05-09T10:28:43.366Z,2337.00
2024-05-09T10:29:43.354Z,2291.00
2024-05-09T10:30:43.460Z,2230.00
2024-05-09T10:31:43.565Z,2210.00
2024-05-09T10:32:43.445Z,2235.00
2024-05-09T10:33:43.467Z,2252.00
2024-05-09T10:34:43.444Z,2257.00
2024-05-09T10:35:43.262Z,2272.00
2024-05-09T10:36:43.363Z,2303.00
2024-05-09T10:37:43.271Z,2321.00
2024-05-09T10:38:43.359Z,2387.00
2024-05-09T10:39:43.311Z,2395.00
2024-05-09T10:40:43.321Z,2415.00
2024-05-09T10:41:43.211Z,2446.00
2024-05-09T10:42:43.299Z,2457.00
2024-05-09T10:43:43.199Z,2503.00
2024-05-09T10:44:43.182Z,2523.00
2024-05-09T10:45:43.184Z,2522.00
2024-05-09T10:46:43.146Z,2497.00
2024-05-09T10:47:43.332Z,2470.00
2024-05-09T10:48:43.480Z,2461.00
2024-05-09T10:49:43.175Z,2422.00
2024-05-09T10:50:43.112Z,2400.00
2024-05-09T10:51:43.139Z,2398.00
2024-05-09T10:52:43.108Z,2396.00
2024-05-09T10:53:43.236Z,2377.00
2024-05-09T10:54:43.128Z,2359.00
2024-05-09T10:55:43.053Z,2339.00
2024-05-09T10:56:43.085Z,2318.00
2024-05-09T10:57:43.147Z,2313.00
2024-05-09T10:58:43.145Z,2291.00
2024-05-09T10:59:43.050Z,2284.00
2024-05-09T11:00:43.141Z,2279.00
2024-05-09T11:01:43.195Z,2268.00
2024-05-09T11:02:43.398Z,2266.00
2024-05-09T11:03:43.239Z,2232.00
2024-05-09T11:04:43.080Z,2227.00
2024-05-09T11:05:43.275Z,2231.00
2024-05-09T11:06:43.007Z,2294.00
2024-05-09T11:07:42.950Z,6643.00
2024-05-09T11:08:42.933Z,1865.00
2024-05-09T11:09:42.992Z,1933.00
2024-05-09T11:10:43.029Z,2039.00
2024-05-09T11:11:43.018Z,2170.00
2024-05-09T11:12:42.936Z,2329.00
2024-05-09T11:13:42.864Z,2191.00
2024-05-09T11:14:42.878Z,1966.00
2024-05-09T11:15:42.954Z,1940.00
2024-05-09T11:16:42.846Z,1552.00
2024-05-09T11:17:42.906Z,2462.00
2024-05-09T11:18:42.991Z,2456.00
2024-05-09T11:19:42.910Z,2436.00
2024-05-09T11:20:42.882Z,2420.00
2024-05-09T11:21:42.990Z,2390.00
2024-05-09T11:22:42.781Z,3218.00
2024-05-09T11:23:42.773Z,5027.00
2024-05-09T11:24:42.804Z,3144.00
2024-05-09T11:25:42.774Z,1922.00
2024-05-09T11:26:42.727Z,1759.00
2024-05-09T11:27:42.783Z,1788.00
2024-05-09T11:28:42.730Z,1590.00
2024-05-09T11:29:42.727Z,1126.00
2024-05-09T11:30:42.732Z,1794.00
2024-05-09T11:31:42.789Z,2377.00
2024-05-09T11:33:42.821Z,2232.00
2024-05-09T11:34:42.868Z,1421.00
2024-05-09T11:35:42.671Z,2296.00
2024-05-09T11:36:42.746Z,2353.00
2024-05-09T11:37:42.635Z,2320.00
2024-05-09T11:38:42.711Z,2259.00
2024-05-09T11:39:42.686Z,2210.00
2024-05-09T11:40:42.754Z,2215.00
2024-05-09T11:41:42.632Z,2237.00
2024-05-09T11:42:42.599Z,2270.00
2024-05-09T11:43:42.584Z,2284.00
2024-05-09T11:44:42.610Z,2291.00
2024-05-09T11:45:42.589Z,2276.00
2024-05-09T11:46:42.528Z,2263.00
2024-05-09T11:47:42.626Z,2275.00
2024-05-09T11:48:42.743Z,2278.00
2024-05-09T11:49:42.595Z,2298.00
2024-05-09T11:50:42.597Z,2296.00
2024-05-09T11:51:42.568Z,2280.00
2024-05-09T11:52:42.470Z,2260.00
2024-05-09T11:53:42.990Z,2245.00
2024-05-09T11:54:42.486Z,2243.00
2024-05-09T11:55:42.431Z,2236.00
2024-05-09T11:56:42.432Z,2242.00
2024-05-09T11:57:42.493Z,2248.00
2024-05-09T11:58:42.408Z,2267.00
2024-05-09T11:59:42.393Z,2292.00
2024-05-09T12:00:42.464Z,2292.00
2024-05-09T12:01:42.476Z,2296.00
2024-05-09T12:02:42.415Z,2320.00
2024-05-09T12:03:42.525Z,2330.00
2024-05-09T12:04:42.628Z,3624.00
2024-05-09T12:05:42.561Z,1942.00
2024-05-09T12:06:42.377Z,4084.00
2024-05-09T12:07:42.336Z,1800.00
2024-05-09T12:08:42.305Z,3236.00
2024-05-09T12:09:42.308Z,1958.00
2024-05-09T12:10:42.478Z,2295.00
2024-05-09T12:11:42.397Z,2290.00
2024-05-09T12:12:42.333Z,2242.00
2024-05-09T12:13:42.246Z,2216.00
2024-05-09T12:14:42.253Z,2238.00
2024-05-09T12:15:42.261Z,2280.00
2024-05-09T12:16:42.359Z,2297.00
2024-05-09T12:17:42.335Z,2280.00
2024-05-09T12:18:42.289Z,2263.00
2024-05-09T12:19:42.205Z,2254.00
2024-05-09T12:20:42.217Z,2248.00
2024-05-09T12:21:42.212Z,2244.00
2024-05-09T12:22:42.149Z,2224.00
2024-05-09T12:23:42.141Z,2252.00
2024-05-09T12:24:42.227Z,2251.00
2024-05-09T12:25:42.215Z,2203.00
2024-05-09T12:26:42.153Z,2126.00
2024-05-09T12:27:42.178Z,2093.00
2024-05-09T12:28:42.123Z,2102.00
2024-05-09T12:29:42.106Z,2065.00